Time;durP1;ratioP1;P1;durP2;ratioP2;P2;SDS_P1;SDS_P2;PMS_P1;PMS_P2;Temp;Humidity;BMP_temperature;BMP_pressure;BME280_temperature;BME280_humidity;BME280_pressure;Samples;Min_cycle;Max_cycle;Signal;HPM_P1;HPM_P2
2024/03/11 00:01:44;;;;;;;4.00;3.53;;;9.50;99.90;;;;;;5018627;28;20537;-68
2024/03/11 00:04:13;;;;;;;4.00;3.13;;;9.40;99.90;;;;;;5022069;28;20466;-68
2024/03/11 00:06:40;;;;;;;3.80;3.30;;;9.40;99.90;;;;;;5024610;28;20439;-68
2024/03/11 00:09:18;;;;;;;3.87;3.10;;;9.30;99.90;;;;;;5024767;28;20538;-68
2024/03/11 00:11:55;;;;;;;3.83;3.43;;;9.40;99.90;;;;;;5024522;28;20731;-68
2024/03/11 00:14:33;;;;;;;4.17;3.43;;;9.40;99.90;;;;;;5016469;28;20455;-68
2024/03/11 00:16:59;;;;;;;4.73;3.47;;;9.40;99.90;;;;;;5017056;28;20440;-68
2024/03/11 00:19:26;;;;;;;4.30;3.80;;;9.40;99.90;;;;;;5021741;28;20493;-68
2024/03/11 00:21:59;;;;;;;5.30;3.93;;;9.40;99.90;;;;;;5022109;28;20510;-68
2024/03/11 00:24:25;;;;;;;4.40;3.70;;;9.40;99.90;;;;;;5023049;28;20488;-68
2024/03/11 00:26:52;;;;;;;3.70;3.37;;;9.30;99.90;;;;;;5020933;28;20423;-68
2024/03/11 00:29:19;;;;;;;4.17;3.47;;;9.30;99.90;;;;;;5016249;28;20251;-68
2024/03/11 00:31:45;;;;;;;4.30;3.63;;;9.30;99.90;;;;;;5021053;28;20442;-69
2024/03/11 00:34:11;;;;;;;5.30;3.80;;;9.30;99.90;;;;;;5019560;28;20445;-68
2024/03/11 00:36:37;;;;;;;4.80;3.50;;;9.30;99.90;;;;;;5013820;28;20437;-68
2024/03/11 00:39:03;;;;;;;4.70;4.30;;;9.40;99.90;;;;;;5022408;28;20176;-68
2024/03/11 00:41:29;;;;;;;4.70;4.03;;;9.40;99.90;;;;;;5019917;28;20561;-68
2024/03/11 00:43:55;;;;;;;4.00;3.60;;;9.40;99.90;;;;;;5018048;28;20519;-68
2024/03/11 00:46:21;;;;;;;4.67;3.50;;;9.40;99.90;;;;;;5019659;28;20181;-68
2024/03/11 00:48:47;;;;;;;4.70;4.00;;;9.40;99.90;;;;;;5016885;28;21388;-67
2024/03/11 00:51:14;;;;;;;5.13;3.80;;;9.40;99.90;;;;;;5014896;28;20173;-67
2024/03/11 00:53:40;;;;;;;5.87;3.50;;;9.40;99.90;;;;;;5023634;28;20422;-67
2024/03/11 00:56:06;;;;;;;5.13;3.60;;;9.50;99.90;;;;;;5022444;28;20408;-68
2024/03/11 00:58:34;;;;;;;4.33;3.93;;;9.40;99.90;;;;;;5020709;28;20804;-67
2024/03/11 01:01:01;;;;;;;4.30;3.70;;;9.40;99.90;;;;;;5013009;28;20447;-67
2024/03/11 01:03:29;;;;;;;8.00;3.73;;;9.40;99.90;;;;;;5018355;28;20568;-68
2024/03/11 01:05:56;;;;;;;4.73;4.00;;;9.40;99.90;;;;;;5022389;28;20431;-68
2024/03/11 01:08:23;;;;;;;3.90;3.53;;;9.40;99.90;;;;;;5022401;28;20441;-68
2024/03/11 01:10:48;;;;;;;3.93;3.20;;;9.50;99.90;;;;;;5019320;28;20836;-68
2024/03/11 01:13:14;;;;;;;3.97;3.50;;;9.50;99.90;;;;;;5020477;28;20933;-68
2024/03/11 01:15:40;;;;;;;5.40;4.23;;;9.60;99.90;;;;;;5014387;28;20597;-68
2024/03/11 01:18:05;;;;;;;4.50;3.80;;;9.50;99.90;;;;;;5017103;28;20188;-68
2024/03/11 01:20:31;;;;;;;4.53;4.00;;;9.50;99.90;;;;;;5021470;28;20207;-68
2024/03/11 01:22:56;;;;;;;4.10;3.70;;;9.60;99.90;;;;;;5019080;28;20192;-68
2024/03/11 01:25:22;;;;;;;4.17;3.70;;;9.60;99.90;;;;;;5018630;28;20257;-68
2024/03/11 01:27:49;;;;;;;4.93;4.40;;;9.60;99.90;;;;;;5021448;28;20604;-68
2024/03/11 01:30:14;;;;;;;4.37;3.80;;;9.60;99.90;;;;;;5019350;28;20908;-68
2024/03/11 01:32:44;;;;;;;6.20;5.20;;;9.70;99.90;;;;;;5022978;28;20416;-68
2024/03/11 01:35:11;;;;;;;4.43;3.83;;;9.70;99.90;;;;;;5020266;28;20196;-68
2024/03/11 01:37:37;;;;;;;4.43;4.03;;;9.70;99.90;;;;;;5021578;28;20430;-68
2024/03/11 01:40:03;;;;;;;4.70;4.17;;;9.70;99.90;;;;;;5015302;28;20412;-68
2024/03/11 01:42:29;;;;;;;4.63;4.00;;;9.70;99.90;;;;;;5019517;28;20419;-68
2024/03/11 01:44:54;;;;;;;4.17;3.77;;;9.70;99.90;;;;;;5017856;28;20466;-68
2024/03/11 01:47:24;;;;;;;4.70;3.70;;;9.60;99.90;;;;;;5021823;28;20188;-68
2024/03/11 01:49:53;;;;;;;3.73;3.43;;;9.60;99.90;;;;;;5015853;28;20618;-68
2024/03/11 01:52:33;;;;;;;5.33;3.80;;;9.60;99.90;;;;;;5016027;28;20525;-68
2024/03/11 01:54:59;;;;;;;6.80;4.00;;;9.60;99.90;;;;;;5019163;28;20438;-68
2024/03/11 01:57:29;;;;;;;4.63;3.90;;;9.60;99.90;;;;;;5015711;28;20454;-68
2024/03/11 01:59:55;;;;;;;4.20;3.80;;;9.70;99.90;;;;;;5022833;28;20423;-68
2024/03/11 02:02:21;;;;;;;6.73;4.40;;;9.60;99.90;;;;;;5019552;28;20443;-68
2024/03/11 02:04:47;;;;;;;4.53;3.90;;;9.60;99.90;;;;;;5020487;28;20443;-68
2024/03/11 02:07:17;;;;;;;5.50;5.00;;;9.60;99.90;;;;;;5017963;28;20454;-68
2024/03/11 02:09:43;;;;;;;6.27;4.03;;;9.60;99.90;;;;;;5020957;28;20246;-68
2024/03/11 02:12:11;;;;;;;5.30;4.13;;;9.60;99.90;;;;;;5026195;28;20659;-68
2024/03/11 02:14:37;;;;;;;4.67;3.90;;;9.50;99.90;;;;;;5016934;28;20446;-68
2024/03/11 02:17:06;;;;;;;7.07;4.83;;;9.60;99.90;;;;;;5024377;28;20913;-68
2024/03/11 02:19:33;;;;;;;4.73;4.23;;;9.70;99.90;;;;;;5025591;28;20430;-68
2024/03/11 02:22:03;;;;;;;5.63;4.70;;;9.70;99.90;;;;;;5018884;28;20432;-68
2024/03/11 02:24:28;;;;;;;5.30;4.30;;;9.70;99.90;;;;;;5021631;28;20826;-68
2024/03/11 02:26:54;;;;;;;4.60;3.90;;;9.70;99.90;;;;;;5020256;28;20456;-68
2024/03/11 02:29:20;;;;;;;4.60;4.20;;;9.80;99.90;;;;;;5021479;28;20295;-68
2024/03/11 02:31:47;;;;;;;5.13;4.13;;;9.80;99.90;;;;;;5022601;28;20181;-68
2024/03/11 02:34:14;;;;;;;6.20;4.00;;;9.80;99.90;;;;;;5016593;28;20529;-68
2024/03/11 02:36:48;;;;;;;5.17;4.23;;;9.70;99.90;;;;;;5023445;28;20415;-68
2024/03/11 02:39:15;;;;;;;4.20;3.70;;;9.70;99.90;;;;;;5022893;28;20566;-68
2024/03/11 02:41:42;;;;;;;4.40;4.00;;;9.70;99.90;;;;;;5022184;28;20526;-68
2024/03/11 02:44:12;;;;;;;4.30;3.70;;;9.70;99.90;;;;;;5021457;28;20445;-68
2024/03/11 02:46:38;;;;;;;5.50;3.97;;;9.80;99.90;;;;;;5024157;28;20838;-68
2024/03/11 02:49:03;;;;;;;4.70;3.70;;;9.70;99.90;;;;;;5020826;28;20439;-68
2024/03/11 02:51:32;;;;;;;4.83;3.23;;;9.70;99.90;;;;;;5015325;28;20948;-68
2024/03/11 02:53:57;;;;;;;3.33;3.03;;;9.70;99.90;;;;;;5025454;28;20212;-68
2024/03/11 02:56:23;;;;;;;4.53;3.70;;;9.60;99.90;;;;;;5021723;28;20937;-68
2024/03/11 02:58:49;;;;;;;4.13;3.50;;;9.60;99.90;;;;;;5021499;28;20280;-68
2024/03/11 03:01:16;;;;;;;3.40;2.90;;;9.60;99.90;;;;;;5020201;28;20486;-68
2024/03/11 03:03:42;;;;;;;3.50;3.00;;;9.50;99.90;;;;;;5022970;28;20415;-68
2024/03/11 03:06:08;;;;;;;3.60;2.83;;;9.50;99.90;;;;;;5017140;28;20783;-68
2024/03/11 03:08:33;;;;;;;3.77;3.10;;;9.50;99.90;;;;;;5019087;28;20412;-68
2024/03/11 03:11:01;;;;;;;3.90;2.87;;;9.50;99.90;;;;;;5028139;28;20215;-68
2024/03/11 03:13:29;;;;;;;4.23;2.93;;;9.40;99.90;;;;;;5020540;28;20187;-67
2024/03/11 03:15:56;;;;;;;3.80;3.10;;;9.40;99.90;;;;;;5021350;28;20843;-67
2024/03/11 03:18:22;;;;;;;3.60;2.60;;;9.50;99.90;;;;;;5016449;28;20432;-68
2024/03/11 03:20:48;;;;;;;3.73;2.60;;;9.50;99.90;;;;;;5028313;28;20471;-68
2024/03/11 03:23:13;;;;;;;3.20;2.30;;;9.40;99.90;;;;;;5018761;28;20510;-68
2024/03/11 03:25:39;;;;;;;4.50;2.50;;;9.40;99.90;;;;;;5019976;28;20211;-67
2024/03/11 03:28:05;;;;;;;3.60;2.10;;;9.40;99.90;;;;;;5018938;28;20216;-67
2024/03/11 03:30:35;;;;;;;3.33;2.40;;;9.40;99.90;;;;;;5013853;28;20225;-68
2024/03/11 03:33:01;;;;;;;3.53;2.80;;;9.50;99.90;;;;;;5020247;28;20761;-68
2024/03/11 03:35:27;;;;;;;3.03;2.33;;;9.50;99.90;;;;;;5020274;28;20639;-68
2024/03/11 03:37:54;;;;;;;2.53;2.10;;;9.50;99.90;;;;;;5020346;28;20890;-68
2024/03/11 03:40:19;;;;;;;2.80;2.27;;;9.50;99.90;;;;;;5016705;28;20209;-68
2024/03/11 03:42:46;;;;;;;2.70;2.23;;;9.50;99.90;;;;;;5018931;28;20474;-68
2024/03/11 03:45:13;;;;;;;2.67;2.00;;;9.40;99.90;;;;;;5021184;28;20212;-69
2024/03/11 03:47:39;;;;;;;3.10;2.20;;;9.50;99.90;;;;;;5019159;28;20641;-68
2024/03/11 03:50:05;;;;;;;2.50;1.80;;;9.40;99.90;;;;;;5026485;28;20557;-68
2024/03/11 03:52:31;;;;;;;3.57;2.10;;;9.40;99.90;;;;;;5017301;28;21182;-68
2024/03/11 03:54:56;;;;;;;3.90;2.33;;;9.50;99.90;;;;;;5019069;28;20464;-68
2024/03/11 03:57:22;;;;;;;3.10;2.13;;;9.50;99.90;;;;;;5015435;28;20201;-68
2024/03/11 03:59:52;;;;;;;2.90;2.13;;;9.60;99.90;;;;;;5022811;28;20188;-68
2024/03/11 04:02:18;;;;;;;3.13;2.10;;;9.60;99.90;;;;;;5020465;28;20234;-68
2024/03/11 04:04:44;;;;;;;3.17;1.90;;;9.50;99.90;;;;;;5018159;28;20524;-68
2024/03/11 04:07:10;;;;;;;3.27;2.10;;;9.50;99.90;;;;;;5024802;28;20188;-68
2024/03/11 04:09:38;;;;;;;3.57;2.27;;;9.60;99.90;;;;;;5020573;28;20470;-68
2024/03/11 04:12:06;;;;;;;2.20;1.80;;;9.60;99.90;;;;;;5020627;28;20271;-68
2024/03/11 04:14:36;;;;;;;3.50;2.17;;;9.50;99.90;;;;;;5018108;28;20427;-68
2024/03/11 04:17:03;;;;;;;3.33;1.70;;;9.40;99.90;;;;;;5015694;28;20447;-68
2024/03/11 04:19:28;;;;;;;2.57;1.97;;;9.40;99.90;;;;;;5015657;28;20514;-68
2024/03/11 04:21:54;;;;;;;2.90;1.77;;;9.40;99.90;;;;;;5020202;28;20901;-68
2024/03/11 04:24:24;;;;;;;2.63;2.07;;;9.40;99.90;;;;;;5019964;28;20757;-68
2024/03/11 04:26:50;;;;;;;2.40;1.63;;;9.40;99.90;;;;;;5019857;28;20176;-68
2024/03/11 04:29:17;;;;;;;3.43;1.80;;;9.30;99.90;;;;;;5015525;28;20478;-68
2024/03/11 04:31:43;;;;;;;1.80;1.30;;;9.30;99.90;;;;;;5013180;28;20534;-68
2024/03/11 04:34:09;;;;;;;2.90;2.03;;;9.30;99.90;;;;;;5018962;28;20440;-68
2024/03/11 04:36:36;;;;;;;2.57;1.80;;;9.20;99.90;;;;;;5027605;28;20431;-68
2024/03/11 04:39:04;;;;;;;2.80;2.20;;;9.20;99.90;;;;;;5015542;28;20293;-68
2024/03/11 04:41:31;;;;;;;2.60;1.80;;;9.30;99.90;;;;;;5021001;28;20810;-68
2024/03/11 04:43:57;;;;;;;2.00;1.70;;;9.30;99.90;;;;;;5016409;28;20513;-68
2024/03/11 04:46:23;;;;;;;1.97;1.47;;;9.30;99.90;;;;;;5019726;28;20427;-68
2024/03/11 04:48:49;;;;;;;2.40;1.70;;;9.30;99.90;;;;;;5011168;28;20423;-68
2024/03/11 04:51:14;;;;;;;2.77;1.80;;;9.20;99.90;;;;;;5019593;28;20694;-68
2024/03/11 04:53:40;;;;;;;2.73;1.73;;;9.10;99.90;;;;;;5016115;28;20644;-69
2024/03/11 04:56:06;;;;;;;2.70;1.70;;;9.10;99.90;;;;;;5013790;28;20191;-68
2024/03/11 04:58:32;;;;;;;2.90;2.10;;;9.10;99.90;;;;;;5013008;28;20180;-68
2024/03/11 05:00:58;;;;;;;2.20;1.70;;;9.10;99.90;;;;;;5015250;28;20775;-68
2024/03/11 05:03:24;;;;;;;3.37;1.80;;;9.10;99.90;;;;;;5019689;28;20189;-68
2024/03/11 05:05:50;;;;;;;3.10;1.80;;;9.20;99.90;;;;;;5017883;28;20238;-68
2024/03/11 05:08:15;;;;;;;2.57;1.80;;;9.20;99.90;;;;;;5022033;28;20410;-68
2024/03/11 05:10:41;;;;;;;3.43;1.80;;;9.20;99.90;;;;;;5021114;28;20625;-68
2024/03/11 05:13:07;;;;;;;2.67;1.70;;;9.20;99.90;;;;;;5017440;28;20206;-68
2024/03/11 05:15:33;;;;;;;2.40;1.70;;;9.20;99.90;;;;;;5016768;28;20599;-68
2024/03/11 05:17:59;;;;;;;2.00;1.40;;;9.20;99.90;;;;;;5009703;28;20527;-68
2024/03/11 05:20:25;;;;;;;2.53;1.70;;;9.20;99.90;;;;;;5015041;28;20200;-68
2024/03/11 05:22:51;;;;;;;5.33;1.73;;;9.20;99.90;;;;;;5016759;28;20423;-68
2024/03/11 05:25:20;;;;;;;3.80;1.93;;;9.10;99.90;;;;;;5022475;28;20196;-68
2024/03/11 05:27:47;;;;;;;2.47;1.90;;;9.10;99.90;;;;;;5013249;28;20181;-68
2024/03/11 05:30:13;;;;;;;2.93;1.97;;;9.10;99.90;;;;;;5014435;28;20467;-68
2024/03/11 05:32:40;;;;;;;3.30;1.60;;;9.10;99.90;;;;;;5016605;28;20413;-68
2024/03/11 05:35:06;;;;;;;3.13;1.70;;;9.20;99.90;;;;;;5014772;28;20459;-68
2024/03/11 05:37:33;;;;;;;4.33;1.90;;;9.20;99.90;;;;;;5017507;28;20416;-68
2024/03/11 05:40:05;;;;;;;2.80;1.90;;;9.20;99.90;;;;;;5021425;28;20564;-68
2024/03/11 05:42:32;;;;;;;3.10;1.77;;;9.10;99.90;;;;;;5014248;28;20432;-68
2024/03/11 05:44:58;;;;;;;2.80;1.90;;;9.10;99.90;;;;;;5012340;28;20430;-68
2024/03/11 05:47:27;;;;;;;3.27;2.10;;;9.20;99.90;;;;;;5015388;28;20451;-68
2024/03/11 05:49:53;;;;;;;8.80;2.00;;;9.10;99.90;;;;;;5017721;28;20806;-68
2024/03/11 05:52:21;;;;;;;2.50;2.13;;;9.20;99.90;;;;;;5014191;28;20547;-68
2024/03/11 05:54:50;;;;;;;2.10;1.60;;;9.20;99.90;;;;;;5019750;28;20431;-68
2024/03/11 05:57:25;;;;;;;1.93;1.47;;;9.20;99.90;;;;;;5019692;28;20629;-68
2024/03/11 05:59:54;;;;;;;2.43;1.90;;;9.20;99.90;;;;;;5022333;28;20790;-68
2024/03/11 06:02:20;;;;;;;3.80;1.97;;;9.20;99.90;;;;;;5015357;28;20424;-68
2024/03/11 06:04:46;;;;;;;4.17;1.87;;;9.20;99.90;;;;;;5014729;28;21432;-68
2024/03/11 06:07:23;;;;;;;2.70;1.87;;;9.10;99.90;;;;;;5018135;28;21051;-68
2024/03/11 06:09:52;;;;;;;2.60;1.70;;;9.10;99.90;;;;;;5013368;28;20823;-68
2024/03/11 06:12:19;;;;;;;3.60;1.77;;;9.10;99.90;;;;;;5016171;28;20602;-68
2024/03/11 06:14:45;;;;;;;2.53;1.77;;;9.20;99.90;;;;;;5014198;28;20436;-68
2024/03/11 06:17:11;;;;;;;2.93;1.80;;;9.20;99.90;;;;;;5016769;28;20812;-68
2024/03/11 06:19:39;;;;;;;3.70;2.00;;;9.20;99.90;;;;;;5013030;28;20204;-68
2024/03/11 06:22:05;;;;;;;2.93;1.83;;;9.20;99.90;;;;;;5015198;28;20184;-69
2024/03/11 06:24:32;;;;;;;2.90;2.20;;;9.20;99.90;;;;;;5014371;28;20447;-68
2024/03/11 06:26:58;;;;;;;2.67;2.03;;;9.20;99.90;;;;;;5017630;28;20575;-68
2024/03/11 06:29:27;;;;;;;3.30;2.10;;;9.30;99.90;;;;;;5016300;28;20474;-68
2024/03/11 06:31:53;;;;;;;3.30;2.07;;;9.40;99.90;;;;;;5010849;28;20423;-68
2024/03/11 06:34:21;;;;;;;3.53;2.10;;;9.40;99.90;;;;;;5009341;28;20447;-68
2024/03/11 06:36:48;;;;;;;6.23;2.27;;;9.40;99.90;;;;;;5017417;28;20480;-68
2024/03/11 06:39:15;;;;;;;3.00;2.10;;;9.40;99.90;;;;;;5013758;28;21088;-68
2024/03/11 06:41:41;;;;;;;2.90;2.00;;;9.40;99.90;;;;;;5021053;28;20443;-68
2024/03/11 06:44:07;;;;;;;4.60;2.07;;;9.40;99.90;;;;;;5017919;28;20455;-68
2024/03/11 06:46:32;;;;;;;2.40;1.80;;;9.40;99.90;;;;;;5016993;28;20435;-68
2024/03/11 06:48:58;;;;;;;2.70;2.10;;;9.40;99.90;;;;;;5013304;28;20412;-68
2024/03/11 06:51:24;;;;;;;3.00;2.10;;;9.40;99.90;;;;;;5019308;28;20204;-68
2024/03/11 06:53:50;;;;;;;3.03;2.20;;;9.40;99.90;;;;;;5014099;28;20220;-68
2024/03/11 06:56:15;;;;;;;3.00;2.03;;;9.40;99.90;;;;;;5012118;28;20436;-68
2024/03/11 06:58:44;;;;;;;4.20;2.13;;;9.50;99.90;;;;;;5021018;28;20173;-68
2024/03/11 07:01:11;;;;;;;3.80;2.20;;;9.50;99.90;;;;;;5016489;28;20616;-68
2024/03/11 07:03:37;;;;;;;3.00;2.00;;;9.50;99.90;;;;;;5022005;28;20435;-68
2024/03/11 07:06:04;;;;;;;3.17;2.10;;;9.40;99.90;;;;;;5016833;28;20465;-68
2024/03/11 07:08:32;;;;;;;2.70;1.90;;;9.40;99.90;;;;;;5014515;28;20440;-68
2024/03/11 07:11:00;;;;;;;3.43;1.90;;;9.60;99.90;;;;;;5024189;28;20458;-68
2024/03/11 07:13:29;;;;;;;4.17;2.80;;;9.70;99.90;;;;;;5016532;28;20416;-68
2024/03/11 07:15:55;;;;;;;2.27;1.60;;;9.70;99.90;;;;;;5023066;28;20874;-68
2024/03/11 07:18:21;;;;;;;2.60;1.60;;;9.70;99.90;;;;;;5019913;28;20439;-68
2024/03/11 07:20:48;;;;;;;6.40;2.00;;;9.70;99.90;;;;;;5023347;28;20420;-68
2024/03/11 07:23:14;;;;;;;2.40;1.63;;;9.80;99.90;;;;;;5019176;28;20465;-68
2024/03/11 07:25:40;;;;;;;2.47;1.80;;;9.70;99.90;;;;;;5020020;28;20435;-68
2024/03/11 07:28:06;;;;;;;3.17;2.10;;;9.80;99.90;;;;;;5017566;28;20465;-68
2024/03/11 07:30:32;;;;;;;3.00;1.90;;;9.70;99.90;;;;;;5017579;28;20558;-68
2024/03/11 07:33:04;;;;;;;4.80;2.17;;;9.80;99.90;;;;;;5022045;28;20494;-68
2024/03/11 07:35:32;;;;;;;2.57;1.67;;;9.90;99.90;;;;;;5019828;28;20443;-68
2024/03/11 07:37:57;;;;;;;3.10;2.07;;;9.90;99.90;;;;;;5014783;28;20938;-68
2024/03/11 07:40:23;;;;;;;2.43;1.80;;;10.00;99.90;;;;;;5017003;28;20469;-68
2024/03/11 07:42:49;;;;;;;3.70;1.90;;;10.10;99.90;;;;;;5019806;28;20245;-68
2024/03/11 07:45:15;;;;;;;3.90;2.00;;;10.10;99.90;;;;;;5023093;28;20196;-68
2024/03/11 07:47:40;;;;;;;3.50;1.90;;;10.20;99.90;;;;;;5017910;28;20419;-68
2024/03/11 07:50:08;;;;;;;2.60;1.70;;;10.30;99.90;;;;;;5024890;28;20218;-68
2024/03/11 07:52:34;;;;;;;2.20;1.70;;;10.20;99.90;;;;;;5015404;28;20169;-68
2024/03/11 07:55:00;;;;;;;2.30;1.53;;;10.30;99.90;;;;;;5018780;28;20451;-68
2024/03/11 07:57:26;;;;;;;2.40;1.70;;;10.20;99.90;;;;;;5018051;28;20423;-70
2024/03/11 07:59:51;;;;;;;2.40;1.80;;;10.20;99.90;;;;;;5017027;28;20177;-68
2024/03/11 08:02:17;;;;;;;5.10;2.20;;;10.30;99.90;;;;;;5018430;28;20563;-68
2024/03/11 08:04:43;;;;;;;2.70;1.90;;;10.20;99.90;;;;;;5022601;28;20214;-68
2024/03/11 08:07:08;;;;;;;2.70;1.90;;;10.10;99.90;;;;;;5018483;28;20548;-68
2024/03/11 08:09:34;;;;;;;2.63;1.77;;;10.20;99.90;;;;;;5015050;28;20204;-68
2024/03/11 08:12:00;;;;;;;2.80;1.70;;;10.20;99.90;;;;;;5016834;28;20176;-68
2024/03/11 08:14:25;;;;;;;2.20;1.70;;;10.20;99.90;;;;;;5017857;28;20279;-68
2024/03/11 08:16:51;;;;;;;2.60;1.90;;;10.20;99.90;;;;;;5013129;28;20201;-68
2024/03/11 08:19:17;;;;;;;2.70;1.97;;;10.20;99.90;;;;;;5017823;28;20359;-68
2024/03/11 08:21:43;;;;;;;2.60;2.10;;;10.20;99.90;;;;;;5013254;28;20530;-68
2024/03/11 08:24:11;;;;;;;2.87;1.60;;;10.30;99.90;;;;;;5022433;28;20945;-68
2024/03/11 08:26:37;;;;;;;2.20;1.73;;;10.30;99.90;;;;;;5019240;28;20419;-68
2024/03/11 08:29:03;;;;;;;3.40;1.70;;;10.30;99.90;;;;;;5016909;28;20442;-68
2024/03/11 08:31:29;;;;;;;3.60;1.90;;;10.40;99.90;;;;;;5019216;28;20432;-69
2024/03/11 08:33:54;;;;;;;2.70;1.80;;;10.40;99.90;;;;;;5013449;28;20435;-68
2024/03/11 08:36:20;;;;;;;2.50;1.70;;;10.50;99.90;;;;;;5026216;28;20654;-68
2024/03/11 08:38:46;;;;;;;2.97;1.70;;;10.50;99.90;;;;;;5019335;28;20687;-68
2024/03/11 08:41:14;;;;;;;2.90;1.70;;;10.70;99.90;;;;;;5023667;28;20180;-68
2024/03/11 08:43:39;;;;;;;4.43;2.13;;;10.70;99.90;;;;;;5016736;28;20207;-68
2024/03/11 08:46:05;;;;;;;3.63;1.70;;;10.70;99.90;;;;;;5016278;28;20443;-68
2024/03/11 08:48:31;;;;;;;2.60;1.70;;;10.70;99.90;;;;;;5019161;28;20200;-67
2024/03/11 08:50:58;;;;;;;3.10;1.70;;;10.70;99.90;;;;;;5019638;28;20678;-68
2024/03/11 08:53:24;;;;;;;3.13;1.70;;;10.70;99.90;;;;;;5020804;28;20635;-68
2024/03/11 08:55:50;;;;;;;3.43;1.70;;;10.80;99.90;;;;;;5021033;28;20501;-68
2024/03/11 08:58:19;;;;;;;2.70;1.70;;;10.90;99.90;;;;;;5019252;28;20424;-68
2024/03/11 09:00:45;;;;;;;3.07;1.93;;;11.10;99.90;;;;;;5016726;28;20174;-68
2024/03/11 09:03:12;;;;;;;2.40;1.40;;;11.20;99.90;;;;;;5020264;28;20427;-68
2024/03/11 09:05:40;;;;;;;3.83;2.30;;;11.30;99.90;;;;;;5024422;28;20469;-68
2024/03/11 09:08:05;;;;;;;2.33;1.60;;;11.40;99.90;;;;;;5012588;28;20447;-68
2024/03/11 09:10:31;;;;;;;2.87;1.83;;;11.40;99.90;;;;;;5018861;28;20475;-68
2024/03/11 09:12:58;;;;;;;2.30;1.50;;;11.40;99.90;;;;;;5014714;28;20181;-68
2024/03/11 09:15:24;;;;;;;2.73;1.70;;;11.40;99.90;;;;;;5025740;28;20280;-68
2024/03/11 09:17:51;;;;;;;2.70;1.77;;;11.50;99.90;;;;;;5020792;28;20435;-67
2024/03/11 09:20:19;;;;;;;5.27;1.73;;;11.50;99.90;;;;;;5014091;28;20440;-67
2024/03/11 09:22:46;;;;;;;2.17;1.50;;;11.50;99.90;;;;;;5015685;28;20432;-67
2024/03/11 09:25:17;;;;;;;2.50;1.60;;;11.60;99.90;;;;;;5020213;28;20446;-67
2024/03/11 09:27:47;;;;;;;1.80;1.30;;;11.60;99.90;;;;;;5014230;28;20864;-67
2024/03/11 09:30:14;;;;;;;2.10;1.60;;;11.60;99.90;;;;;;5015431;28;20478;-67
2024/03/11 09:32:43;;;;;;;2.20;1.60;;;11.60;99.90;;;;;;5019661;28;20404;-67
2024/03/11 09:35:09;;;;;;;4.13;2.20;;;11.60;99.90;;;;;;5022398;28;20510;-67
2024/03/11 09:37:35;;;;;;;2.23;1.63;;;11.60;99.90;;;;;;5014383;28;20438;-67
2024/03/11 09:40:09;;;;;;;2.70;1.80;;;11.60;99.90;;;;;;5020523;28;20411;-68
2024/03/11 09:42:36;;;;;;;2.50;1.70;;;11.60;99.90;;;;;;5014976;28;20565;-67
2024/03/11 09:45:07;;;;;;;5.70;2.10;;;11.60;99.90;;;;;;5016028;28;20450;-68
2024/03/11 09:47:36;;;;;;;2.90;1.67;;;11.70;99.90;;;;;;5016465;28;20419;-68
2024/03/11 09:50:03;;;;;;;3.47;1.80;;;11.70;99.90;;;;;;5020035;28;20468;-67
2024/03/11 09:52:32;;;;;;;6.07;1.70;;;11.70;99.90;;;;;;5019662;28;20805;-67
2024/03/11 09:54:58;;;;;;;2.20;1.70;;;11.80;99.90;;;;;;5013687;28;20585;-68
2024/03/11 09:57:25;;;;;;;3.40;1.83;;;11.80;99.90;;;;;;5020901;28;20430;-67
2024/03/11 09:59:54;;;;;;;3.57;1.73;;;11.80;99.90;;;;;;5015132;28;20514;-67
2024/03/11 10:02:23;;;;;;;2.10;1.70;;;11.90;99.90;;;;;;5016178;28;20439;-67
2024/03/11 10:04:53;;;;;;;2.83;1.93;;;12.00;99.90;;;;;;5019685;28;21003;-68
2024/03/11 10:07:22;;;;;;;3.70;1.97;;;12.00;99.90;;;;;;5014235;28;20919;-67
2024/03/11 10:09:48;;;;;;;2.63;1.67;;;12.10;99.90;;;;;;5019704;28;20568;-67
2024/03/11 10:12:15;;;;;;;2.20;1.80;;;12.30;99.90;;;;;;5018786;28;20553;-67
2024/03/11 10:14:42;;;;;;;2.57;1.63;;;12.30;99.90;;;;;;5015827;28;20208;-67
2024/03/11 10:17:28;;;;;;;2.40;1.70;;;12.50;99.90;;;;;;5021084;28;20533;-67
2024/03/11 10:19:58;;;;;;;3.00;1.67;;;12.70;99.90;;;;;;5013704;28;20929;-68
2024/03/11 10:22:26;;;;;;;2.47;1.70;;;12.90;99.90;;;;;;5020979;28;20424;-68
2024/03/11 10:24:54;;;;;;;2.63;1.70;;;13.00;99.90;;;;;;5016930;28;20439;-68
2024/03/11 10:27:33;;;;;;;3.43;2.10;;;12.90;99.90;;;;;;5017853;28;20617;-68
2024/03/11 10:30:19;;;;;;;5.70;2.10;;;13.00;99.90;;;;;;5021780;28;20562;-68
2024/03/11 10:32:45;;;;;;;2.60;2.03;;;12.90;99.90;;;;;;5031719;28;20463;-68
2024/03/11 10:35:20;;;;;;;2.50;1.80;;;12.80;99.90;;;;;;5023560;28;20439;-68
2024/03/11 10:37:46;;;;;;;2.90;1.77;;;12.80;99.90;;;;;;5023767;28;20434;-68
2024/03/11 10:40:18;;;;;;;5.67;2.00;;;12.90;99.90;;;;;;5024368;28;20419;-68
2024/03/11 10:42:58;;;;;;;5.67;2.00;;;12.90;99.90;;;;;;5017733;28;20837;-68
2024/03/11 10:45:35;;;;;;;3.37;2.10;;;13.00;99.90;;;;;;5021270;28;20449;-68
2024/03/11 10:48:01;;;;;;;3.30;2.03;;;12.90;99.90;;;;;;5024439;28;20951;-67
2024/03/11 10:50:34;;;;;;;2.60;2.00;;;12.80;99.90;;;;;;5014003;28;20471;-68
2024/03/11 10:53:03;;;;;;;3.63;2.23;;;12.90;99.90;;;;;;5018252;28;20489;-68
2024/03/11 10:55:32;;;;;;;5.80;2.00;;;13.10;99.90;;;;;;5022944;28;20427;-67
2024/03/11 10:58:04;;;;;;;2.83;1.90;;;13.10;99.90;;;;;;5024382;28;20415;-68
2024/03/11 11:00:35;;;;;;;3.90;2.10;;;13.30;99.90;;;;;;5022488;28;20442;-68
2024/03/11 11:03:08;;;;;;;2.83;2.07;;;13.40;99.90;;;;;;5017920;28;20426;-68
2024/03/11 11:06:00;;;;;;;2.90;2.30;;;13.60;99.90;;;;;;5020683;28;20975;-68
2024/03/11 11:08:30;;;;;;;2.83;2.40;;;13.50;99.90;;;;;;5021456;28;20411;-68
2024/03/11 11:10:58;;;;;;;2.87;2.33;;;13.70;99.90;;;;;;5022196;28;20466;-68
2024/03/11 11:13:25;;;;;;;3.70;2.57;;;13.90;99.90;;;;;;5020989;28;20430;-68
2024/03/11 11:15:50;;;;;;;5.00;2.53;;;14.00;99.90;;;;;;5023253;28;20436;-68
2024/03/11 11:18:18;;;;;;;3.57;1.93;;;14.20;99.90;;;;;;5021131;28;20466;-68
2024/03/11 11:20:49;;;;;;;3.00;2.10;;;14.30;99.90;;;;;;5020907;28;20176;-68
2024/03/11 11:23:34;;;;;;;3.03;2.03;;;14.40;99.90;;;;;;5024117;28;20457;-68
2024/03/11 11:26:01;;;;;;;3.00;2.30;;;14.50;99.90;;;;;;5019962;28;20408;-68
2024/03/11 11:28:28;;;;;;;2.97;2.07;;;14.50;99.90;;;;;;5019868;28;20432;-68
2024/03/11 11:31:14;;;;;;;5.27;2.87;;;14.60;99.90;;;;;;5022696;28;20459;-69
2024/03/11 11:34:01;;;;;;;2.73;2.30;;;14.70;99.90;;;;;;5021370;28;20403;-68
2024/03/11 11:36:30;;;;;;;3.00;2.20;;;14.70;99.90;;;;;;5022896;28;20422;-68
2024/03/11 11:38:57;;;;;;;3.13;2.00;;;14.80;99.90;;;;;;5026449;28;20714;-68
2024/03/11 11:41:36;;;;;;;4.17;2.40;;;14.90;99.90;;;;;;5023075;28;20498;-67
2024/03/11 11:44:03;;;;;;;2.90;1.97;;;15.00;99.90;;;;;;5018399;28;20439;-68
2024/03/11 11:46:46;;;;;;;3.80;2.57;;;15.00;99.90;;;;;;5018001;28;20795;-68
2024/03/11 11:49:18;;;;;;;3.07;2.43;;;14.90;99.90;;;;;;5018427;28;20415;-70
2024/03/11 11:51:47;;;;;;;4.60;2.63;;;14.90;99.90;;;;;;5021706;28;20477;-68
2024/03/11 11:54:25;;;;;;;2.73;2.20;;;15.00;99.90;;;;;;5018179;28;20447;-68
2024/03/11 11:57:06;;;;;;;2.73;2.37;;;14.90;99.90;;;;;;5023291;28;20476;-68
2024/03/11 11:59:36;;;;;;;4.47;2.27;;;14.70;99.90;;;;;;5021976;28;20461;-68
2024/03/11 12:02:02;;;;;;;3.60;2.30;;;14.60;99.90;;;;;;5021401;28;20506;-68
2024/03/11 12:04:28;;;;;;;3.77;2.50;;;14.30;99.90;;;;;;5014350;28;20547;-68
2024/03/11 12:06:54;;;;;;;3.27;2.50;;;14.30;99.90;;;;;;5018474;28;20185;-68
2024/03/11 12:09:20;;;;;;;3.23;2.20;;;14.40;99.90;;;;;;5021987;28;20172;-68
2024/03/11 12:11:49;;;;;;;5.87;2.17;;;15.30;99.90;;;;;;5022046;28;20408;-68
2024/03/11 12:14:15;;;;;;;2.63;2.00;;;17.80;99.90;;;;;;5023759;28;20200;-69
2024/03/11 12:16:42;;;;;;;3.33;2.33;;;20.70;99.90;;;;;;5023066;28;20450;-67
2024/03/11 12:19:11;;;;;;;3.53;2.30;;;23.00;99.90;;;;;;5017427;28;20411;-66
2024/03/11 12:21:41;;;;;;;2.57;2.27;;;24.90;95.30;;;;;;5022194;28;20490;-66
2024/03/11 12:24:16;;;;;;;3.10;2.50;;;27.00;84.90;;;;;;5015952;28;20443;-66
2024/03/11 12:26:45;;;;;;;3.10;2.47;;;27.80;70.60;;;;;;5022106;28;20465;-67
2024/03/11 12:29:21;;;;;;;3.30;2.43;;;28.20;59.70;;;;;;5018047;28;20925;-67
2024/03/11 12:32:04;;;;;;;3.40;2.70;;;28.80;56.60;;;;;;5022016;28;20533;-67
2024/03/11 12:34:32;;;;;;;3.33;2.40;;;28.60;52.70;;;;;;5016186;28;20568;-67
2024/03/11 12:36:59;;;;;;;2.63;2.37;;;28.20;51.70;;;;;;5022303;28;20516;-67
2024/03/11 12:39:33;;;;;;;2.40;2.10;;;28.20;51.20;;;;;;5022808;28;20407;-67
2024/03/11 12:42:00;;;;;;;2.83;2.50;;;28.60;50.80;;;;;;5018637;28;20462;-67
2024/03/11 12:44:26;;;;;;;3.17;2.40;;;28.20;49.60;;;;;;5026288;28;20507;-68
2024/03/11 12:46:53;;;;;;;3.30;2.53;;;27.20;48.50;;;;;;5016685;28;20585;-67
2024/03/11 12:49:20;;;;;;;2.67;2.30;;;25.50;50.10;;;;;;5018907;28;20444;-67
2024/03/11 12:51:47;;;;;;;3.40;2.37;;;23.40;51.70;;;;;;5019567;28;20815;-67
2024/03/11 12:54:24;;;;;;;4.10;3.70;;;23.10;55.00;;;;;;5015313;28;20458;-67
2024/03/11 12:57:05;;;;;;;5.60;5.03;;;23.70;55.50;;;;;;5017210;28;20921;-68